createdAt,value
2018-04-15T00:01:10.994Z,408.07
2018-04-15T00:03:39.676Z,374.13
2018-04-15T00:06:08.067Z,355.03
2018-04-15T00:08:36.714Z,346.43
2018-04-15T00:11:05.706Z,304.93
2018-04-15T00:13:35.193Z,391.17
2018-04-15T00:16:04.712Z,354.93
2018-04-15T00:18:35.095Z,444.40
2018-04-15T00:21:03.377Z,405.43
2018-04-15T00:23:32.655Z,331.70
2018-04-15T00:26:01.634Z,351.13
2018-04-15T00:28:31.935Z,401.57
2018-04-15T00:31:02.215Z,358.50
2018-04-15T00:33:31.290Z,392.13
2018-04-15T00:36:00.994Z,403.77
2018-04-15T00:38:29.596Z,343.60
2018-04-15T00:40:58.595Z,410.30
2018-04-15T00:43:27.094Z,318.80
2018-04-15T00:45:55.554Z,361.77
2018-04-15T00:48:23.966Z,287.53
2018-04-15T00:50:52.262Z,405.70
2018-04-15T00:53:21.983Z,380.17
2018-04-15T00:55:51.267Z,308.40
2018-04-15T00:58:20.322Z,320.33
2018-04-15T01:00:48.590Z,332.50
2018-04-15T01:03:16.962Z,272.20
2018-04-15T01:05:47.597Z,308.33
2018-04-15T01:08:15.866Z,283.13
2018-04-15T01:10:44.383Z,228.83
2018-04-15T01:13:13.915Z,279.37
2018-04-15T01:15:42.318Z,320.93
2018-04-15T01:18:12.231Z,384.30
2018-04-15T01:20:41.300Z,274.23
2018-04-15T01:23:10.374Z,319.57
2018-04-15T01:25:38.659Z,344.30
2018-04-15T01:28:06.923Z,243.70
2018-04-15T01:30:35.304Z,257.40
2018-04-15T01:33:03.874Z,296.83
2018-04-15T01:35:32.255Z,265.13
2018-04-15T01:38:00.532Z,300.93
2018-04-15T01:40:29.146Z,273.77
2018-04-15T01:42:57.698Z,268.33
2018-04-15T01:45:26.066Z,300.23
2018-04-15T01:47:54.353Z,272.83
2018-04-15T01:50:22.642Z,339.90
2018-04-15T01:52:50.920Z,234.43
2018-04-15T01:55:21.319Z,297.40
2018-04-15T01:57:49.608Z,264.97
2018-04-15T02:00:18.475Z,278.77
2018-04-15T02:02:47.723Z,308.93
2018-04-15T02:05:16.950Z,367.83
2018-04-15T02:07:45.639Z,259.47
2018-04-15T02:10:14.418Z,289.93
2018-04-15T02:12:44.048Z,327.40
2018-04-15T02:15:12.364Z,341.00
2018-04-15T02:17:40.668Z,330.80
2018-04-15T02:20:09.463Z,361.40
2018-04-15T02:22:38.051Z,325.27
2018-04-15T02:25:06.430Z,382.87
2018-04-15T02:27:34.838Z,321.27
2018-04-15T02:30:03.345Z,313.33
2018-04-15T02:32:32.487Z,244.47
2018-04-15T02:35:00.862Z,344.13
2018-04-15T02:37:29.142Z,256.90
2018-04-15T02:39:58.871Z,321.03
2018-04-15T02:42:27.435Z,374.47
2018-04-15T02:44:56.459Z,374.27
2018-04-15T02:47:24.842Z,361.63
2018-04-15T02:49:53.107Z,336.73
2018-04-15T02:52:21.859Z,351.23
2018-04-15T02:54:50.262Z,307.17
2018-04-15T02:57:19.053Z,287.90
2018-04-15T02:59:47.362Z,284.60
2018-04-15T03:02:15.785Z,403.67
2018-04-15T03:04:44.094Z,394.63
2018-04-15T03:07:12.477Z,372.23
2018-04-15T03:09:40.859Z,346.17
2018-04-15T03:12:09.991Z,360.97
2018-04-15T03:14:39.368Z,312.53
2018-04-15T03:17:09.202Z,235.07
2018-04-15T03:19:38.586Z,185.47
2018-04-15T03:22:06.854Z,240.40
2018-04-15T03:24:35.175Z,260.03
2018-04-15T03:27:04.232Z,367.73
2018-04-15T03:29:32.537Z,304.90
2018-04-15T03:32:00.830Z,350.00
2018-04-15T03:34:30.070Z,205.67
2018-04-15T03:37:00.073Z,239.27
2018-04-15T03:39:28.348Z,236.30
2018-04-15T03:41:56.650Z,263.60
2018-04-15T03:44:24.966Z,285.07
2018-04-15T03:46:53.738Z,274.30
2018-04-15T03:49:25.809Z,299.53
2018-04-15T03:51:54.362Z,266.53
2018-04-15T03:54:23.401Z,297.67
2018-04-15T03:56:52.249Z,316.07
2018-04-15T03:59:20.885Z,288.87
2018-04-15T04:01:50.530Z,389.07
2018-04-15T04:04:19.053Z,344.13
2018-04-15T04:06:49.069Z,320.37
2018-04-15T04:09:17.556Z,358.17
2018-04-15T04:11:47.317Z,367.10
2018-04-15T04:14:15.952Z,340.77
2018-04-15T04:16:44.233Z,315.90
2018-04-15T04:22:52.712Z,347.87
2018-04-15T04:25:30.234Z,326.70
2018-04-15T04:27:58.719Z,219.97
2018-04-15T04:30:27.814Z,267.00
2018-04-15T04:32:56.082Z,409.33
2018-04-15T04:35:25.125Z,219.93
2018-04-15T04:37:53.675Z,109.27
2018-04-15T04:40:22.799Z,450.37
2018-04-15T04:42:51.147Z,194.03
2018-04-15T04:45:19.527Z,376.10
2018-04-15T04:47:47.822Z,538.60
2018-04-15T04:50:17.146Z,484.00
2018-04-15T04:52:45.495Z,273.97
2018-04-15T04:55:14.575Z,319.13
2018-04-15T04:57:44.232Z,199.07
2018-04-15T05:00:12.883Z,102.53
2018-04-15T05:02:42.110Z,145.10
2018-04-15T05:05:11.019Z,167.13
2018-04-15T05:07:40.545Z,181.20
2018-04-15T05:10:11.074Z,211.43
2018-04-15T05:12:40.503Z,196.50
2018-04-15T05:15:08.776Z,199.50
2018-04-15T05:17:37.043Z,240.07
2018-04-15T05:20:05.678Z,363.23
2018-04-15T05:22:34.022Z,344.47
2018-04-15T05:25:02.336Z,246.47
2018-04-15T05:27:30.630Z,236.40
2018-04-15T05:29:59.027Z,228.70
2018-04-15T05:32:29.296Z,629.80
2018-04-15T05:34:57.607Z,201.13
2018-04-15T05:37:25.891Z,345.60
2018-04-15T05:39:54.383Z,360.67
2018-04-15T05:42:23.202Z,230.10
2018-04-15T05:44:52.108Z,185.97
2018-04-15T05:47:20.714Z,339.47
2018-04-15T05:49:49.430Z,238.20
2018-04-15T05:52:17.757Z,179.00
2018-04-15T05:54:46.175Z,300.07
2018-04-15T05:57:14.450Z,235.00
2018-04-15T05:59:43.052Z,395.30
2018-04-15T06:02:11.365Z,217.10
2018-04-15T06:04:40.158Z,213.17
2018-04-15T06:07:09.002Z,264.13
2018-04-15T06:09:37.550Z,289.83
2018-04-15T06:12:06.564Z,349.03
2018-04-15T06:14:35.218Z,258.37
2018-04-15T06:17:04.554Z,234.87
2018-04-15T06:19:33.275Z,295.90
2018-04-15T06:22:01.562Z,254.50
2018-04-15T06:24:30.820Z,258.13
2018-04-15T06:26:59.120Z,313.57
2018-04-15T06:29:28.168Z,247.20
2018-04-15T06:31:56.550Z,223.53
2018-04-15T06:34:25.782Z,260.43
2018-04-15T06:36:54.885Z,181.67
2018-04-15T06:39:23.750Z,226.47
2018-04-15T06:41:52.902Z,201.23
2018-04-15T06:44:22.862Z,225.57
2018-04-15T06:46:52.390Z,169.27
2018-04-15T06:49:20.684Z,172.00
2018-04-15T06:51:48.960Z,209.33
2018-04-15T06:54:17.865Z,216.10
2018-04-15T06:56:46.150Z,207.57
2018-04-15T06:59:15.298Z,216.67
2018-04-15T07:01:44.435Z,171.40
2018-04-15T07:04:13.024Z,152.70
2018-04-15T07:06:42.110Z,150.60
2018-04-15T07:09:10.802Z,153.50
2018-04-15T07:11:39.885Z,160.87
2018-04-15T07:14:08.159Z,125.90
2018-04-15T07:16:36.482Z,124.00
2018-04-15T07:19:05.736Z,116.60
2018-04-15T07:21:34.050Z,147.37
2018-04-15T07:24:03.083Z,137.07
2018-04-15T07:26:33.549Z,133.43
2018-04-15T07:29:02.346Z,125.70
2018-04-15T07:31:30.663Z,113.07
2018-04-15T07:33:59.268Z,124.37
2018-04-15T07:36:28.408Z,109.47
2018-04-15T07:38:56.675Z,114.73
2018-04-15T07:41:24.970Z,143.23
2018-04-15T07:43:54.567Z,114.87
2018-04-15T07:46:23.357Z,129.17
2018-04-15T07:48:56.547Z,140.33
2018-04-15T07:51:24.899Z,119.53
2018-04-15T07:53:53.491Z,136.23
2018-04-15T07:56:22.739Z,121.77
2018-04-15T07:58:52.084Z,139.60
2018-04-15T08:01:21.175Z,141.20
2018-04-15T08:03:49.462Z,137.30
2018-04-15T08:06:17.754Z,131.70
2018-04-15T08:08:46.771Z,144.03
2018-04-15T08:11:15.075Z,138.20
2018-04-15T08:13:44.021Z,121.83
2018-04-15T08:16:12.314Z,138.90
2018-04-15T08:18:40.651Z,109.80
2018-04-15T08:21:09.740Z,138.07
2018-04-15T08:23:38.014Z,145.90
2018-04-15T08:26:06.411Z,149.17
2018-04-15T08:28:34.723Z,147.40
2018-04-15T08:31:03.032Z,149.77
2018-04-15T08:33:32.075Z,146.33
2018-04-15T08:36:00.386Z,133.77
2018-04-15T08:38:28.787Z,157.30
2018-04-15T08:40:57.314Z,134.40
2018-04-15T08:43:26.000Z,151.57
2018-04-15T08:45:54.321Z,153.13
2018-04-15T08:48:23.410Z,136.67
2018-04-15T08:50:51.706Z,152.10
2018-04-15T08:53:22.375Z,143.00
2018-04-15T08:55:52.227Z,129.57
2018-04-15T08:58:20.501Z,145.97
2018-04-15T09:00:49.256Z,130.77
2018-04-15T09:03:18.299Z,139.87
2018-04-15T09:05:46.578Z,126.10
2018-04-15T09:08:15.035Z,134.13
2018-04-15T09:10:45.730Z,135.03
2018-04-15T09:13:14.015Z,141.27
2018-04-15T09:15:42.387Z,138.77
2018-04-15T09:18:10.720Z,136.80
2018-04-15T09:20:38.961Z,135.27
2018-04-15T09:23:07.267Z,146.10
2018-04-15T09:25:36.605Z,147.10
2018-04-15T09:28:05.762Z,131.57
2018-04-15T09:30:39.542Z,139.87
2018-04-15T09:33:08.301Z,121.73
2018-04-15T09:35:38.266Z,145.27
2018-04-15T09:38:07.490Z,140.73
2018-04-15T09:40:35.888Z,125.33
2018-04-15T09:43:04.954Z,132.43
2018-04-15T09:45:33.335Z,150.17
2018-04-15T09:48:01.659Z,148.17
2018-04-15T09:50:30.728Z,141.43
2018-04-15T09:52:59.067Z,148.33
2018-04-15T09:55:28.184Z,146.40
2018-04-15T09:57:56.474Z,146.13
2018-04-15T10:00:24.774Z,147.27
2018-04-15T10:02:53.915Z,134.50
2018-04-15T10:05:22.241Z,145.80
2018-04-15T10:07:52.062Z,142.07
2018-04-15T10:10:21.396Z,149.17
2018-04-15T10:12:49.691Z,151.07
2018-04-15T10:15:18.691Z,128.10
2018-04-15T10:17:47.534Z,149.33
2018-04-15T10:20:21.114Z,128.23
2018-04-15T10:22:49.682Z,147.17
2018-04-15T10:25:17.967Z,179.70
2018-04-15T10:27:46.844Z,143.93
2018-04-15T10:30:15.850Z,149.17
2018-04-15T10:32:44.232Z,146.93
2018-04-15T10:35:12.606Z,138.00
2018-04-15T10:37:41.616Z,141.33
2018-04-15T10:40:09.901Z,125.53
2018-04-15T10:42:38.233Z,122.10
2018-04-15T10:45:06.626Z,106.77
2018-04-15T10:47:35.239Z,116.37
2018-04-15T10:50:03.592Z,109.03
2018-04-15T10:52:31.882Z,108.80
2018-04-15T10:55:00.378Z,114.87
2018-04-15T10:57:29.552Z,105.60
2018-04-15T10:59:58.075Z,129.00
2018-04-15T11:02:27.958Z,111.33
2018-04-15T11:04:57.669Z,109.13
2018-04-15T11:07:26.672Z,103.70
2018-04-15T11:09:55.004Z,118.33
2018-04-15T11:12:23.310Z,101.70
2018-04-15T11:14:51.699Z,88.80
2018-04-15T11:17:20.168Z,98.80
2018-04-15T11:19:48.451Z,104.83
2018-04-15T11:22:17.026Z,101.50
2018-04-15T11:24:46.182Z,115.40
2018-04-15T11:27:15.739Z,124.67
2018-04-15T11:29:44.069Z,104.83
2018-04-15T11:32:13.107Z,108.77
2018-04-15T11:34:41.482Z,111.37
2018-04-15T11:37:09.770Z,108.50
2018-04-15T11:39:38.060Z,92.67
2018-04-15T11:42:06.452Z,103.20
2018-04-15T11:44:34.703Z,94.67
2018-04-15T11:47:02.984Z,99.10
2018-04-15T11:49:31.287Z,97.00
2018-04-15T11:51:59.919Z,106.60
2018-04-15T11:54:28.210Z,106.73
2018-04-15T11:56:56.720Z,89.90
2018-04-15T11:59:25.010Z,100.00
2018-04-15T12:01:53.590Z,113.67
2018-04-15T12:04:21.893Z,109.13
2018-04-15T12:06:50.946Z,93.37
2018-04-15T12:09:19.282Z,90.93
2018-04-15T12:11:47.921Z,102.37
2018-04-15T12:14:16.574Z,87.03
2018-04-15T12:16:44.895Z,85.27
2018-04-15T12:19:13.391Z,80.83
2018-04-15T12:21:42.331Z,80.97
2018-04-15T12:24:10.725Z,91.97
2018-04-15T12:26:39.015Z,80.07
2018-04-15T12:29:07.830Z,86.80
2018-04-15T12:31:36.131Z,94.97
2018-04-15T12:34:05.557Z,91.87
2018-04-15T12:36:33.839Z,78.83
2018-04-15T12:39:02.171Z,90.83
2018-04-15T12:41:30.959Z,88.50
2018-04-15T12:44:00.056Z,87.13
2018-04-15T12:46:28.897Z,89.03
2018-04-15T12:48:57.184Z,93.60
2018-04-15T12:51:25.806Z,73.80
2018-04-15T12:53:54.099Z,86.60
2018-04-15T12:56:23.179Z,90.87
2018-04-15T12:58:51.527Z,97.60
2018-04-15T13:01:19.814Z,105.77
2018-04-15T13:03:48.179Z,93.07
2018-04-15T13:06:16.663Z,101.97
2018-04-15T13:08:45.772Z,92.67
2018-04-15T13:11:15.809Z,98.83
2018-04-15T13:13:45.238Z,103.97
2018-04-15T13:16:15.370Z,93.13
2018-04-15T13:18:44.436Z,87.57
2018-04-15T13:21:12.707Z,93.50
2018-04-15T13:23:41.093Z,87.00
2018-04-15T13:26:10.551Z,91.17
2018-04-15T13:28:38.859Z,91.83
2018-04-15T13:31:07.136Z,101.50
2018-04-15T13:33:35.607Z,106.73
2018-04-15T13:36:03.903Z,97.83
2018-04-15T13:38:32.700Z,122.20
2018-04-15T13:41:01.064Z,104.37
2018-04-15T13:43:29.450Z,96.80
2018-04-15T13:45:58.207Z,94.87
2018-04-15T13:48:26.510Z,101.33
2018-04-15T13:50:54.795Z,89.17
2018-04-15T13:53:23.158Z,118.93
2018-04-15T13:55:52.174Z,117.17
2018-04-15T13:58:20.467Z,95.03
2018-04-15T14:00:48.742Z,93.40
2018-04-15T14:03:17.151Z,100.10
2018-04-15T14:05:45.434Z,93.83
2018-04-15T14:08:13.806Z,106.40
2018-04-15T14:10:43.046Z,93.70
2018-04-15T14:13:12.125Z,101.73
2018-04-15T14:15:40.419Z,92.77
2018-04-15T14:18:08.738Z,89.43
2018-04-15T14:20:37.035Z,100.10
2018-04-15T14:23:06.098Z,83.37
2018-04-15T14:25:34.763Z,85.83
2018-04-15T14:28:03.038Z,91.23
2018-04-15T14:30:32.152Z,89.70
2018-04-15T14:33:00.639Z,90.23
2018-04-15T14:35:28.947Z,83.83
2018-04-15T14:37:57.235Z,85.10
2018-04-15T14:40:27.153Z,108.93
2018-04-15T14:42:55.734Z,88.27
2018-04-15T14:45:25.311Z,79.70
2018-04-15T14:47:55.081Z,77.10
2018-04-15T14:50:23.362Z,91.27
2018-04-15T14:52:53.168Z,84.03
2018-04-15T14:55:21.454Z,75.10
2018-04-15T14:57:50.996Z,80.50
2018-04-15T15:00:19.491Z,74.03
2018-04-15T15:02:47.847Z,65.97
2018-04-15T15:05:16.747Z,86.10
2018-04-15T15:07:45.122Z,82.70
2018-04-15T15:10:13.703Z,81.97
2018-04-15T15:12:41.983Z,76.60
2018-04-15T15:15:10.306Z,93.53
2018-04-15T15:17:39.473Z,80.67
2018-04-15T15:20:08.008Z,76.27
2018-04-15T15:22:36.336Z,83.13
2018-04-15T15:25:05.535Z,77.83
2018-04-15T15:27:33.808Z,87.87
2018-04-15T15:30:02.599Z,73.07
2018-04-15T15:32:30.935Z,83.43
2018-04-15T15:34:59.218Z,77.77
2018-04-15T15:37:28.939Z,79.10
2018-04-15T15:39:57.244Z,90.97
2018-04-15T15:42:25.548Z,95.20
2018-04-15T15:44:54.902Z,74.93
2018-04-15T15:47:23.975Z,77.97
2018-04-15T15:49:52.858Z,86.67
2018-04-15T15:52:21.140Z,83.43
2018-04-15T15:54:49.429Z,85.67
2018-04-15T15:57:17.743Z,91.63
2018-04-15T15:59:46.018Z,91.77
2018-04-15T16:02:14.400Z,84.37
2018-04-15T16:04:42.779Z,86.23
2018-04-15T16:07:11.061Z,89.13
2018-04-15T16:09:39.400Z,92.27
2018-04-15T16:12:08.007Z,90.27
2018-04-15T16:14:36.320Z,83.80
2018-04-15T16:17:04.975Z,88.87
2018-04-15T16:19:33.275Z,81.03
2018-04-15T16:22:02.362Z,85.53
2018-04-15T16:24:30.683Z,81.50
2018-04-15T16:27:00.173Z,82.00
2018-04-15T16:29:30.166Z,82.80
2018-04-15T16:31:59.458Z,94.50
2018-04-15T16:34:27.751Z,86.27
2018-04-15T16:36:56.077Z,79.83
2018-04-15T16:39:25.933Z,73.17
2018-04-15T16:41:54.851Z,82.70
2018-04-15T16:44:24.153Z,81.43
2018-04-15T16:46:54.346Z,86.17
2018-04-15T16:49:22.976Z,93.10
2018-04-15T16:51:52.305Z,75.97
2018-04-15T16:54:20.615Z,78.23
2018-04-15T16:56:48.899Z,70.83
2018-04-15T16:59:17.545Z,79.73
2018-04-15T17:01:46.632Z,75.03
2018-04-15T17:04:14.937Z,69.93
2018-04-15T17:06:43.668Z,76.70
2018-04-15T17:09:11.972Z,77.53
2018-04-15T17:11:40.274Z,74.47
2018-04-15T17:14:08.584Z,75.77
2018-04-15T17:16:37.912Z,79.37
2018-04-15T17:19:07.834Z,77.13
2018-04-15T17:21:36.885Z,79.83
2018-04-15T17:24:05.333Z,78.13
2018-04-15T17:26:36.688Z,77.33
2018-04-15T17:29:05.092Z,81.60
2018-04-15T17:31:33.531Z,76.63
2018-04-15T17:34:02.899Z,95.70
2018-04-15T17:36:31.227Z,77.33
2018-04-15T17:38:59.515Z,73.50
2018-04-15T17:41:27.935Z,95.17
2018-04-15T17:43:57.280Z,93.60
2018-04-15T17:46:25.570Z,82.20
2018-04-15T17:48:54.278Z,85.47
2018-04-15T17:51:22.589Z,79.63
2018-04-15T17:53:50.936Z,76.63
2018-04-15T17:56:20.207Z,90.07
2018-04-15T17:58:48.517Z,82.93
2018-04-15T18:01:16.874Z,86.60
2018-04-15T18:03:45.197Z,104.40
2018-04-15T18:06:14.259Z,75.83
2018-04-15T18:08:42.870Z,93.97
2018-04-15T18:11:11.201Z,70.50
2018-04-15T18:13:40.683Z,98.50
2018-04-15T18:16:11.246Z,87.63
2018-04-15T18:18:39.777Z,81.50
2018-04-15T18:21:09.560Z,96.03
2018-04-15T18:23:38.131Z,86.97
2018-04-15T18:26:06.431Z,76.43
2018-04-15T18:28:34.731Z,94.57
2018-04-15T18:31:04.857Z,82.87
2018-04-15T18:33:33.940Z,94.63
2018-04-15T18:36:02.240Z,102.87
2018-04-15T18:38:31.682Z,96.90
2018-04-15T18:41:00.104Z,103.67
2018-04-15T18:43:28.423Z,78.93
2018-04-15T18:45:56.830Z,85.33
2018-04-15T18:48:25.121Z,89.23
2018-04-15T18:50:53.475Z,73.67
2018-04-15T18:53:21.764Z,97.33
2018-04-15T18:55:50.050Z,92.97
2018-04-15T18:58:18.425Z,89.60
2018-04-15T19:00:47.022Z,98.50
2018-04-15T19:03:15.900Z,83.10
2018-04-15T19:05:44.212Z,92.23
2018-04-15T19:08:12.784Z,109.80
2018-04-15T19:10:41.235Z,93.93
2018-04-15T19:13:09.533Z,87.43
2018-04-15T19:15:38.576Z,81.57
2018-04-15T19:18:08.391Z,112.57
2018-04-15T19:20:38.223Z,92.53
2018-04-15T19:23:07.227Z,93.30
2018-04-15T19:25:35.515Z,90.57
2018-04-15T19:28:06.840Z,106.33
2018-04-15T19:30:35.893Z,92.93
2018-04-15T19:33:04.192Z,85.00
2018-04-15T19:35:32.524Z,90.10
2018-04-15T19:38:00.898Z,97.93
2018-04-15T19:40:29.256Z,99.73
2018-04-15T19:42:59.523Z,87.77
2018-04-15T19:45:27.811Z,102.97
2018-04-15T19:47:56.679Z,96.37
2018-04-15T19:50:25.020Z,89.07
2018-04-15T19:52:54.584Z,99.37
2018-04-15T19:55:22.878Z,93.10
2018-04-15T19:57:51.463Z,88.30
2018-04-15T20:00:19.853Z,83.17
2018-04-15T20:02:48.170Z,102.50
2018-04-15T20:05:16.689Z,102.63
2018-04-15T20:07:45.619Z,100.17
2018-04-15T20:10:14.678Z,99.67
2018-04-15T20:12:44.110Z,73.00
2018-04-15T20:15:15.288Z,85.83
2018-04-15T20:17:44.055Z,86.63
2018-04-15T20:20:13.865Z,86.47
2018-04-15T20:22:43.267Z,78.10
2018-04-15T20:25:13.344Z,80.60
2018-04-15T20:27:42.490Z,117.97
2018-04-15T20:30:12.050Z,146.43
2018-04-15T20:32:40.432Z,142.27
2018-04-15T20:35:08.722Z,170.97
2018-04-15T20:37:37.083Z,151.73
2018-04-15T20:40:06.279Z,128.27
2018-04-15T20:42:34.683Z,119.43
2018-04-15T20:45:02.973Z,135.07
2018-04-15T20:47:31.541Z,129.97
2018-04-15T20:49:59.820Z,138.20
2018-04-15T20:52:28.877Z,114.00
2018-04-15T20:54:57.531Z,90.90
2018-04-15T20:57:28.343Z,95.87
2018-04-15T20:59:56.634Z,96.43
2018-04-15T21:02:25.784Z,104.30
2018-04-15T21:04:54.315Z,61.60
2018-04-15T21:07:22.619Z,65.20
2018-04-15T21:09:51.667Z,93.00
2018-04-15T21:12:20.701Z,115.17
2018-04-15T21:14:49.759Z,145.87
2018-04-15T21:17:18.855Z,149.87
2018-04-15T21:19:48.184Z,166.00
2018-04-15T21:22:16.431Z,131.30
2018-04-15T21:24:44.708Z,137.27
2018-04-15T21:27:13.184Z,150.37
2018-04-15T21:29:41.459Z,138.30
2018-04-15T21:32:10.431Z,132.10
2018-04-15T21:34:39.371Z,141.53
2018-04-15T21:37:09.187Z,138.73
2018-04-15T21:39:38.518Z,132.47
2018-04-15T21:42:07.567Z,60.67
2018-04-15T21:44:36.739Z,71.17
2018-04-15T21:47:05.143Z,90.43
2018-04-15T21:49:33.634Z,90.73
2018-04-15T21:52:02.002Z,108.27
2018-04-15T21:54:30.602Z,197.57
2018-04-15T21:56:59.264Z,162.87
2018-04-15T21:59:28.570Z,166.03
2018-04-15T22:02:00.024Z,131.47
2018-04-15T22:04:28.519Z,136.47
2018-04-15T22:06:57.679Z,126.80
2018-04-15T22:09:26.826Z,200.73
2018-04-15T22:12:13.242Z,215.33
2018-04-15T22:14:41.674Z,274.43
2018-04-15T22:17:12.936Z,216.70
2018-04-15T22:19:41.436Z,198.13
2018-04-15T22:22:09.798Z,209.33
2018-04-15T22:24:38.070Z,230.13
2018-04-15T22:27:06.380Z,246.67
2018-04-15T22:29:34.639Z,213.70
2018-04-15T22:32:04.390Z,239.47
2018-04-15T22:34:32.626Z,238.10
2018-04-15T22:37:00.898Z,244.00
2018-04-15T22:39:29.174Z,232.53
2018-04-15T22:41:57.651Z,188.50
2018-04-15T22:44:26.369Z,269.97
2018-04-15T22:46:55.343Z,253.27
2018-04-15T22:49:23.672Z,361.37
2018-04-15T22:51:52.715Z,217.63
2018-04-15T22:54:21.895Z,352.57
2018-04-15T22:56:50.503Z,108.97
2018-04-15T22:59:18.899Z,220.23
2018-04-15T23:01:47.194Z,163.53
2018-04-15T23:04:16.279Z,136.67
2018-04-15T23:06:45.174Z,131.13
2018-04-15T23:09:13.439Z,181.77
2018-04-15T23:11:41.859Z,338.60
2018-04-15T23:14:11.823Z,303.53
2018-04-15T23:16:40.122Z,286.60
2018-04-15T23:19:08.464Z,271.90
2018-04-15T23:21:37.409Z,297.13
2018-04-15T23:24:06.490Z,305.53
2018-04-15T23:26:35.610Z,284.63
2018-04-15T23:29:05.170Z,439.83
2018-04-15T23:31:34.458Z,653.17
2018-04-15T23:34:02.754Z,767.60
2018-04-15T23:36:31.126Z,533.17
2018-04-15T23:38:59.571Z,349.60
2018-04-15T23:41:28.719Z,496.37
2018-04-15T23:43:57.009Z,292.03
2018-04-15T23:46:26.103Z,458.40
2018-04-15T23:48:55.157Z,339.80
2018-04-15T23:51:23.434Z,322.00
2018-04-15T23:53:53.470Z,182.63
2018-04-15T23:56:21.774Z,214.93
2018-04-15T23:58:50.324Z,173.13
